sensor_id;sensor_type;location;lat;lon;timestamp;P1;durP1;ratioP1;P2;durP2;ratioP2
23046;SDS011;11691;51.462;6.902;2023-07-31T00:01:03;12.20;;;5.10;;
23046;SDS011;11691;51.462;6.902;2023-07-31T00:03:29;15.38;;;5.72;;
23046;SDS011;11691;51.462;6.902;2023-07-31T00:05:55;12.52;;;5.32;;
23046;SDS011;11691;51.462;6.902;2023-07-31T00:08:21;15.23;;;5.60;;
23046;SDS011;11691;51.462;6.902;2023-07-31T00:10:50;15.65;;;5.93;;
23046;SDS011;11691;51.462;6.902;2023-07-31T00:13:17;16.38;;;5.93;;
23046;SDS011;11691;51.462;6.902;2023-07-31T00:15:43;15.95;;;6.30;;
23046;SDS011;11691;51.462;6.902;2023-07-31T00:18:09;11.32;;;5.40;;
23046;SDS011;11691;51.462;6.902;2023-07-31T00:20:35;13.52;;;5.53;;
23046;SDS011;11691;51.462;6.902;2023-07-31T00:23:01;11.30;;;4.88;;
23046;SDS011;11691;51.462;6.902;2023-07-31T00:25:27;19.75;;;5.32;;
23046;SDS011;11691;51.462;6.902;2023-07-31T00:27:53;17.42;;;5.68;;
23046;SDS011;11691;51.462;6.902;2023-07-31T00:30:19;15.00;;;5.43;;
23046;SDS011;11691;51.462;6.902;2023-07-31T00:32:45;14.73;;;5.50;;
23046;SDS011;11691;51.462;6.902;2023-07-31T00:35:11;10.20;;;5.22;;
23046;SDS011;11691;51.462;6.902;2023-07-31T00:37:37;13.55;;;5.07;;
23046;SDS011;11691;51.462;6.902;2023-07-31T00:40:03;12.60;;;4.88;;
23046;SDS011;11691;51.462;6.902;2023-07-31T00:42:29;16.63;;;5.35;;
23046;SDS011;11691;51.462;6.902;2023-07-31T00:44:55;23.08;;;5.60;;
23046;SDS011;11691;51.462;6.902;2023-07-31T00:47:21;15.93;;;5.15;;
23046;SDS011;11691;51.462;6.902;2023-07-31T00:49:47;19.08;;;5.60;;
23046;SDS011;11691;51.462;6.902;2023-07-31T00:52:13;16.58;;;5.20;;
23046;SDS011;11691;51.462;6.902;2023-07-31T00:54:39;16.42;;;4.80;;
23046;SDS011;11691;51.462;6.902;2023-07-31T00:57:05;18.02;;;5.38;;
23046;SDS011;11691;51.462;6.902;2023-07-31T00:59:33;17.13;;;5.25;;
23046;SDS011;11691;51.462;6.902;2023-07-31T01:01:59;17.98;;;5.50;;
23046;SDS011;11691;51.462;6.902;2023-07-31T01:04:25;11.85;;;4.80;;
23046;SDS011;11691;51.462;6.902;2023-07-31T01:06:56;11.90;;;4.95;;
23046;SDS011;11691;51.462;6.902;2023-07-31T01:12:01;15.20;;;5.47;;
23046;SDS011;11691;51.462;6.902;2023-07-31T01:14:28;12.98;;;4.97;;
23046;SDS011;11691;51.462;6.902;2023-07-31T01:16:55;14.25;;;4.90;;
23046;SDS011;11691;51.462;6.902;2023-07-31T01:19:21;13.05;;;5.25;;
23046;SDS011;11691;51.462;6.902;2023-07-31T01:22:01;12.70;;;5.03;;
23046;SDS011;11691;51.462;6.902;2023-07-31T01:24:36;15.30;;;5.07;;
23046;SDS011;11691;51.462;6.902;2023-07-31T01:27:10;10.05;;;5.05;;
23046;SDS011;11691;51.462;6.902;2023-07-31T01:29:47;14.13;;;5.07;;
23046;SDS011;11691;51.462;6.902;2023-07-31T01:32:35;13.95;;;4.68;;
23046;SDS011;11691;51.462;6.902;2023-07-31T01:35:04;13.45;;;4.53;;
23046;SDS011;11691;51.462;6.902;2023-07-31T01:37:30;12.27;;;4.88;;
23046;SDS011;11691;51.462;6.902;2023-07-31T01:39:56;15.68;;;5.65;;
23046;SDS011;11691;51.462;6.902;2023-07-31T01:42:22;9.98;;;4.38;;
23046;SDS011;11691;51.462;6.902;2023-07-31T01:44:48;12.20;;;4.35;;
23046;SDS011;11691;51.462;6.902;2023-07-31T01:47:14;14.80;;;4.47;;
23046;SDS011;11691;51.462;6.902;2023-07-31T01:49:40;17.30;;;5.35;;
23046;SDS011;11691;51.462;6.902;2023-07-31T01:52:06;19.23;;;5.10;;
23046;SDS011;11691;51.462;6.902;2023-07-31T01:54:31;13.35;;;5.22;;
23046;SDS011;11691;51.462;6.902;2023-07-31T01:56:58;11.50;;;3.75;;
23046;SDS011;11691;51.462;6.902;2023-07-31T01:59:24;13.35;;;4.50;;
23046;SDS011;11691;51.462;6.902;2023-07-31T02:01:50;17.35;;;5.07;;
23046;SDS011;11691;51.462;6.902;2023-07-31T02:04:16;11.10;;;4.40;;
23046;SDS011;11691;51.462;6.902;2023-07-31T02:06:43;17.52;;;5.43;;
23046;SDS011;11691;51.462;6.902;2023-07-31T02:09:09;15.88;;;4.47;;
23046;SDS011;11691;51.462;6.902;2023-07-31T02:11:35;16.88;;;5.15;;
23046;SDS011;11691;51.462;6.902;2023-07-31T02:14:01;14.35;;;5.10;;
23046;SDS011;11691;51.462;6.902;2023-07-31T02:16:27;12.30;;;4.97;;
23046;SDS011;11691;51.462;6.902;2023-07-31T02:18:52;12.88;;;4.40;;
23046;SDS011;11691;51.462;6.902;2023-07-31T02:21:18;14.75;;;5.55;;
23046;SDS011;11691;51.462;6.902;2023-07-31T02:23:44;10.88;;;4.93;;
23046;SDS011;11691;51.462;6.902;2023-07-31T02:26:11;16.23;;;5.60;;
23046;SDS011;11691;51.462;6.902;2023-07-31T02:28:37;10.82;;;4.90;;
23046;SDS011;11691;51.462;6.902;2023-07-31T02:31:03;14.73;;;5.18;;
23046;SDS011;11691;51.462;6.902;2023-07-31T02:33:29;11.88;;;4.50;;
23046;SDS011;11691;51.462;6.902;2023-07-31T02:35:55;16.27;;;4.72;;
23046;SDS011;11691;51.462;6.902;2023-07-31T02:38:21;12.68;;;4.40;;
23046;SDS011;11691;51.462;6.902;2023-07-31T02:40:47;17.33;;;4.70;;
23046;SDS011;11691;51.462;6.902;2023-07-31T02:43:13;15.70;;;4.63;;
23046;SDS011;11691;51.462;6.902;2023-07-31T02:45:39;9.00;;;4.00;;
23046;SDS011;11691;51.462;6.902;2023-07-31T02:48:05;15.30;;;4.72;;
23046;SDS011;11691;51.462;6.902;2023-07-31T02:50:31;15.40;;;4.65;;
23046;SDS011;11691;51.462;6.902;2023-07-31T02:52:57;13.65;;;3.95;;
23046;SDS011;11691;51.462;6.902;2023-07-31T02:55:23;9.60;;;3.72;;
23046;SDS011;11691;51.462;6.902;2023-07-31T02:57:49;14.20;;;4.20;;
23046;SDS011;11691;51.462;6.902;2023-07-31T03:00:17;12.40;;;4.70;;
23046;SDS011;11691;51.462;6.902;2023-07-31T03:02:43;16.33;;;4.25;;
23046;SDS011;11691;51.462;6.902;2023-07-31T03:05:09;13.60;;;5.35;;
23046;SDS011;11691;51.462;6.902;2023-07-31T03:07:35;14.80;;;4.53;;
23046;SDS011;11691;51.462;6.902;2023-07-31T03:10:01;10.95;;;4.40;;
23046;SDS011;11691;51.462;6.902;2023-07-31T03:12:27;14.50;;;4.57;;
23046;SDS011;11691;51.462;6.902;2023-07-31T03:14:53;14.35;;;4.65;;
23046;SDS011;11691;51.462;6.902;2023-07-31T03:17:19;12.02;;;4.65;;
23046;SDS011;11691;51.462;6.902;2023-07-31T03:19:45;13.45;;;4.45;;
23046;SDS011;11691;51.462;6.902;2023-07-31T03:22:11;12.07;;;5.10;;
23046;SDS011;11691;51.462;6.902;2023-07-31T03:24:37;14.35;;;4.60;;
23046;SDS011;11691;51.462;6.902;2023-07-31T03:27:03;17.90;;;5.18;;
23046;SDS011;11691;51.462;6.902;2023-07-31T03:29:29;13.23;;;4.93;;
23046;SDS011;11691;51.462;6.902;2023-07-31T03:31:55;15.48;;;5.05;;
23046;SDS011;11691;51.462;6.902;2023-07-31T03:34:21;14.93;;;4.85;;
23046;SDS011;11691;51.462;6.902;2023-07-31T03:36:47;11.85;;;4.75;;
23046;SDS011;11691;51.462;6.902;2023-07-31T03:39:13;12.00;;;4.80;;
23046;SDS011;11691;51.462;6.902;2023-07-31T03:41:39;14.15;;;4.47;;
23046;SDS011;11691;51.462;6.902;2023-07-31T03:44:05;12.38;;;4.82;;
23046;SDS011;11691;51.462;6.902;2023-07-31T03:46:31;15.15;;;4.70;;
23046;SDS011;11691;51.462;6.902;2023-07-31T03:48:58;11.27;;;4.60;;
23046;SDS011;11691;51.462;6.902;2023-07-31T03:51:24;13.13;;;4.47;;
23046;SDS011;11691;51.462;6.902;2023-07-31T03:53:50;10.52;;;4.22;;
23046;SDS011;11691;51.462;6.902;2023-07-31T03:56:16;11.93;;;4.75;;
23046;SDS011;11691;51.462;6.902;2023-07-31T03:58:42;13.85;;;4.38;;
23046;SDS011;11691;51.462;6.902;2023-07-31T04:01:08;15.40;;;4.72;;
23046;SDS011;11691;51.462;6.902;2023-07-31T04:03:34;12.02;;;4.75;;
23046;SDS011;11691;51.462;6.902;2023-07-31T04:06:00;15.73;;;4.28;;
23046;SDS011;11691;51.462;6.902;2023-07-31T04:08:26;10.25;;;4.50;;
23046;SDS011;11691;51.462;6.902;2023-07-31T04:10:52;10.20;;;4.15;;
23046;SDS011;11691;51.462;6.902;2023-07-31T04:13:18;14.48;;;4.63;;
23046;SDS011;11691;51.462;6.902;2023-07-31T04:15:48;14.00;;;4.40;;
23046;SDS011;11691;51.462;6.902;2023-07-31T04:18:15;14.90;;;4.53;;
23046;SDS011;11691;51.462;6.902;2023-07-31T04:20:41;14.77;;;4.68;;
23046;SDS011;11691;51.462;6.902;2023-07-31T04:23:07;15.70;;;4.80;;
23046;SDS011;11691;51.462;6.902;2023-07-31T04:25:33;12.02;;;4.85;;
23046;SDS011;11691;51.462;6.902;2023-07-31T04:28:00;12.05;;;4.90;;
23046;SDS011;11691;51.462;6.902;2023-07-31T04:30:26;9.90;;;4.60;;
23046;SDS011;11691;51.462;6.902;2023-07-31T04:32:52;11.48;;;4.65;;
23046;SDS011;11691;51.462;6.902;2023-07-31T04:35:18;12.23;;;4.40;;
23046;SDS011;11691;51.462;6.902;2023-07-31T04:37:44;10.18;;;4.45;;
23046;SDS011;11691;51.462;6.902;2023-07-31T04:40:13;13.02;;;4.72;;
23046;SDS011;11691;51.462;6.902;2023-07-31T04:42:39;12.32;;;4.75;;
23046;SDS011;11691;51.462;6.902;2023-07-31T04:45:05;10.38;;;4.18;;
23046;SDS011;11691;51.462;6.902;2023-07-31T04:47:31;12.20;;;4.43;;
23046;SDS011;11691;51.462;6.902;2023-07-31T04:49:57;13.95;;;4.78;;
23046;SDS011;11691;51.462;6.902;2023-07-31T04:52:23;11.23;;;3.85;;
23046;SDS011;11691;51.462;6.902;2023-07-31T04:54:49;10.23;;;3.85;;
23046;SDS011;11691;51.462;6.902;2023-07-31T04:57:15;8.20;;;4.10;;
23046;SDS011;11691;51.462;6.902;2023-07-31T04:59:41;10.32;;;4.22;;
23046;SDS011;11691;51.462;6.902;2023-07-31T05:02:08;8.70;;;3.80;;
23046;SDS011;11691;51.462;6.902;2023-07-31T05:04:34;13.30;;;4.32;;
23046;SDS011;11691;51.462;6.902;2023-07-31T05:07:00;13.35;;;4.30;;
23046;SDS011;11691;51.462;6.902;2023-07-31T05:09:26;14.35;;;3.78;;
23046;SDS011;11691;51.462;6.902;2023-07-31T05:11:52;15.77;;;4.90;;
23046;SDS011;11691;51.462;6.902;2023-07-31T05:14:18;8.40;;;3.50;;
23046;SDS011;11691;51.462;6.902;2023-07-31T05:16:45;13.00;;;4.47;;
23046;SDS011;11691;51.462;6.902;2023-07-31T05:19:11;12.40;;;4.18;;
23046;SDS011;11691;51.462;6.902;2023-07-31T05:21:37;13.05;;;4.68;;
23046;SDS011;11691;51.462;6.902;2023-07-31T05:24:03;9.48;;;4.60;;
23046;SDS011;11691;51.462;6.902;2023-07-31T05:26:29;9.68;;;3.95;;
23046;SDS011;11691;51.462;6.902;2023-07-31T05:28:55;13.27;;;4.47;;
23046;SDS011;11691;51.462;6.902;2023-07-31T05:31:22;11.18;;;4.35;;
23046;SDS011;11691;51.462;6.902;2023-07-31T05:33:49;10.27;;;4.50;;
23046;SDS011;11691;51.462;6.902;2023-07-31T05:36:15;8.05;;;3.90;;
23046;SDS011;11691;51.462;6.902;2023-07-31T05:38:41;10.75;;;4.63;;
23046;SDS011;11691;51.462;6.902;2023-07-31T05:41:09;8.68;;;4.20;;
23046;SDS011;11691;51.462;6.902;2023-07-31T05:43:35;10.25;;;4.22;;
23046;SDS011;11691;51.462;6.902;2023-07-31T05:46:01;10.27;;;4.72;;
23046;SDS011;11691;51.462;6.902;2023-07-31T05:48:27;12.25;;;4.45;;
23046;SDS011;11691;51.462;6.902;2023-07-31T05:50:53;11.77;;;5.00;;
23046;SDS011;11691;51.462;6.902;2023-07-31T05:53:19;12.18;;;4.43;;
23046;SDS011;11691;51.462;6.902;2023-07-31T05:55:45;9.23;;;4.35;;
23046;SDS011;11691;51.462;6.902;2023-07-31T05:58:11;10.90;;;4.45;;
23046;SDS011;11691;51.462;6.902;2023-07-31T06:00:37;9.75;;;4.20;;
23046;SDS011;11691;51.462;6.902;2023-07-31T06:03:03;12.65;;;4.22;;
23046;SDS011;11691;51.462;6.902;2023-07-31T06:05:29;9.43;;;4.25;;
23046;SDS011;11691;51.462;6.902;2023-07-31T06:07:55;9.13;;;4.50;;
23046;SDS011;11691;51.462;6.902;2023-07-31T06:10:21;9.05;;;4.70;;
23046;SDS011;11691;51.462;6.902;2023-07-31T06:12:47;10.90;;;4.72;;
23046;SDS011;11691;51.462;6.902;2023-07-31T06:15:14;9.27;;;4.32;;
23046;SDS011;11691;51.462;6.902;2023-07-31T06:17:40;9.65;;;4.70;;
23046;SDS011;11691;51.462;6.902;2023-07-31T06:20:06;14.10;;;4.75;;
23046;SDS011;11691;51.462;6.902;2023-07-31T06:22:32;12.80;;;4.57;;
23046;SDS011;11691;51.462;6.902;2023-07-31T06:24:58;12.35;;;5.15;;
23046;SDS011;11691;51.462;6.902;2023-07-31T06:27:24;8.27;;;4.70;;
23046;SDS011;11691;51.462;6.902;2023-07-31T06:29:50;9.02;;;4.47;;
23046;SDS011;11691;51.462;6.902;2023-07-31T06:32:16;11.25;;;4.93;;
23046;SDS011;11691;51.462;6.902;2023-07-31T06:34:42;6.53;;;4.70;;
23046;SDS011;11691;51.462;6.902;2023-07-31T06:37:08;9.05;;;5.05;;
23046;SDS011;11691;51.462;6.902;2023-07-31T06:39:34;16.23;;;5.32;;
23046;SDS011;11691;51.462;6.902;2023-07-31T06:42:00;11.30;;;5.20;;
23046;SDS011;11691;51.462;6.902;2023-07-31T06:44:26;11.85;;;4.80;;
23046;SDS011;11691;51.462;6.902;2023-07-31T06:46:52;9.07;;;5.15;;
23046;SDS011;11691;51.462;6.902;2023-07-31T06:49:18;12.77;;;5.90;;
23046;SDS011;11691;51.462;6.902;2023-07-31T06:51:44;9.05;;;4.88;;
23046;SDS011;11691;51.462;6.902;2023-07-31T06:54:10;10.65;;;5.35;;
23046;SDS011;11691;51.462;6.902;2023-07-31T06:56:36;10.98;;;5.45;;
23046;SDS011;11691;51.462;6.902;2023-07-31T06:59:03;12.20;;;5.15;;
23046;SDS011;11691;51.462;6.902;2023-07-31T07:01:28;9.13;;;5.05;;
23046;SDS011;11691;51.462;6.902;2023-07-31T07:03:54;11.82;;;4.90;;
23046;SDS011;11691;51.462;6.902;2023-07-31T07:06:21;10.02;;;5.28;;
23046;SDS011;11691;51.462;6.902;2023-07-31T07:08:47;14.93;;;5.32;;
23046;SDS011;11691;51.462;6.902;2023-07-31T07:11:14;7.07;;;5.13;;
23046;SDS011;11691;51.462;6.902;2023-07-31T07:13:40;9.18;;;4.97;;
23046;SDS011;11691;51.462;6.902;2023-07-31T07:16:06;8.82;;;4.90;;
23046;SDS011;11691;51.462;6.902;2023-07-31T07:18:32;10.10;;;4.80;;
23046;SDS011;11691;51.462;6.902;2023-07-31T07:20:58;10.23;;;4.97;;
23046;SDS011;11691;51.462;6.902;2023-07-31T07:23:26;11.27;;;5.30;;
23046;SDS011;11691;51.462;6.902;2023-07-31T07:25:52;9.68;;;4.95;;
23046;SDS011;11691;51.462;6.902;2023-07-31T07:28:18;10.80;;;4.53;;
23046;SDS011;11691;51.462;6.902;2023-07-31T07:30:44;12.50;;;5.25;;
23046;SDS011;11691;51.462;6.902;2023-07-31T07:33:10;9.40;;;4.82;;
23046;SDS011;11691;51.462;6.902;2023-07-31T07:35:37;8.70;;;4.32;;
23046;SDS011;11691;51.462;6.902;2023-07-31T07:38:03;9.45;;;4.50;;
23046;SDS011;11691;51.462;6.902;2023-07-31T07:40:29;8.20;;;4.90;;
23046;SDS011;11691;51.462;6.902;2023-07-31T07:42:55;11.13;;;5.15;;
23046;SDS011;11691;51.462;6.902;2023-07-31T07:45:21;9.82;;;4.90;;
23046;SDS011;11691;51.462;6.902;2023-07-31T07:47:47;11.68;;;4.93;;
23046;SDS011;11691;51.462;6.902;2023-07-31T07:50:13;13.93;;;5.35;;
23046;SDS011;11691;51.462;6.902;2023-07-31T07:52:39;13.40;;;4.65;;
23046;SDS011;11691;51.462;6.902;2023-07-31T07:55:05;12.38;;;4.65;;
23046;SDS011;11691;51.462;6.902;2023-07-31T07:57:31;7.50;;;4.45;;
23046;SDS011;11691;51.462;6.902;2023-07-31T07:59:57;8.43;;;4.30;;
23046;SDS011;11691;51.462;6.902;2023-07-31T08:02:23;12.98;;;4.60;;
23046;SDS011;11691;51.462;6.902;2023-07-31T08:04:49;13.30;;;4.80;;
23046;SDS011;11691;51.462;6.902;2023-07-31T08:07:15;8.48;;;4.75;;
23046;SDS011;11691;51.462;6.902;2023-07-31T08:09:41;8.00;;;4.32;;
23046;SDS011;11691;51.462;6.902;2023-07-31T08:12:07;7.22;;;4.53;;
23046;SDS011;11691;51.462;6.902;2023-07-31T08:14:33;7.85;;;3.75;;
23046;SDS011;11691;51.462;6.902;2023-07-31T08:17:00;8.10;;;3.83;;
23046;SDS011;11691;51.462;6.902;2023-07-31T08:19:26;7.82;;;3.63;;
23046;SDS011;11691;51.462;6.902;2023-07-31T08:21:52;6.65;;;3.28;;
23046;SDS011;11691;51.462;6.902;2023-07-31T08:24:18;11.93;;;4.10;;
23046;SDS011;11691;51.462;6.902;2023-07-31T08:26:44;8.07;;;3.50;;
23046;SDS011;11691;51.462;6.902;2023-07-31T08:29:10;9.30;;;3.83;;
23046;SDS011;11691;51.462;6.902;2023-07-31T08:31:36;5.38;;;3.42;;
23046;SDS011;11691;51.462;6.902;2023-07-31T08:34:02;6.72;;;3.55;;
23046;SDS011;11691;51.462;6.902;2023-07-31T08:36:28;7.72;;;4.05;;
23046;SDS011;11691;51.462;6.902;2023-07-31T08:38:54;7.50;;;4.15;;
23046;SDS011;11691;51.462;6.902;2023-07-31T08:41:20;10.15;;;4.10;;
23046;SDS011;11691;51.462;6.902;2023-07-31T08:43:46;5.25;;;3.20;;
23046;SDS011;11691;51.462;6.902;2023-07-31T08:46:14;10.77;;;4.75;;
23046;SDS011;11691;51.462;6.902;2023-07-31T08:48:41;12.55;;;6.07;;
23046;SDS011;11691;51.462;6.902;2023-07-31T08:51:08;11.07;;;5.07;;
23046;SDS011;11691;51.462;6.902;2023-07-31T08:53:34;8.25;;;4.40;;
23046;SDS011;11691;51.462;6.902;2023-07-31T08:56:00;7.28;;;3.90;;
23046;SDS011;11691;51.462;6.902;2023-07-31T08:58:27;7.55;;;3.50;;
23046;SDS011;11691;51.462;6.902;2023-07-31T09:00:56;8.45;;;4.30;;
23046;SDS011;11691;51.462;6.902;2023-07-31T09:03:23;7.65;;;3.83;;
23046;SDS011;11691;51.462;6.902;2023-07-31T09:05:51;7.30;;;4.03;;
23046;SDS011;11691;51.462;6.902;2023-07-31T09:08:18;7.57;;;3.53;;
23046;SDS011;11691;51.462;6.902;2023-07-31T09:10:45;6.88;;;3.70;;
23046;SDS011;11691;51.462;6.902;2023-07-31T09:13:12;5.72;;;3.40;;
23046;SDS011;11691;51.462;6.902;2023-07-31T09:15:38;5.93;;;3.67;;
23046;SDS011;11691;51.462;6.902;2023-07-31T09:18:06;8.18;;;3.83;;
23046;SDS011;11691;51.462;6.902;2023-07-31T09:20:32;9.15;;;4.38;;
23046;SDS011;11691;51.462;6.902;2023-07-31T09:23:08;9.48;;;4.45;;
23046;SDS011;11691;51.462;6.902;2023-07-31T09:25:45;8.68;;;4.47;;
23046;SDS011;11691;51.462;6.902;2023-07-31T09:28:11;11.23;;;4.10;;
23046;SDS011;11691;51.462;6.902;2023-07-31T09:30:45;6.30;;;3.92;;
23046;SDS011;11691;51.462;6.902;2023-07-31T09:33:12;6.25;;;3.42;;
23046;SDS011;11691;51.462;6.902;2023-07-31T09:35:38;8.35;;;3.60;;
23046;SDS011;11691;51.462;6.902;2023-07-31T09:38:06;6.55;;;3.65;;
23046;SDS011;11691;51.462;6.902;2023-07-31T09:40:33;5.45;;;3.42;;
23046;SDS011;11691;51.462;6.902;2023-07-31T09:43:05;5.95;;;3.70;;
23046;SDS011;11691;51.462;6.902;2023-07-31T09:45:35;4.97;;;3.00;;
23046;SDS011;11691;51.462;6.902;2023-07-31T09:48:02;5.15;;;3.00;;
23046;SDS011;11691;51.462;6.902;2023-07-31T09:50:28;4.78;;;2.83;;
23046;SDS011;11691;51.462;6.902;2023-07-31T09:52:54;5.93;;;3.42;;
23046;SDS011;11691;51.462;6.902;2023-07-31T09:55:20;4.15;;;2.90;;
23046;SDS011;11691;51.462;6.902;2023-07-31T09:57:47;5.05;;;3.35;;
23046;SDS011;11691;51.462;6.902;2023-07-31T10:00:15;4.97;;;3.15;;
23046;SDS011;11691;51.462;6.902;2023-07-31T10:02:41;5.30;;;2.42;;
23046;SDS011;11691;51.462;6.902;2023-07-31T10:05:08;3.58;;;2.53;;
23046;SDS011;11691;51.462;6.902;2023-07-31T10:07:37;3.40;;;2.22;;
23046;SDS011;11691;51.462;6.902;2023-07-31T10:10:04;3.15;;;2.20;;
23046;SDS011;11691;51.462;6.902;2023-07-31T10:12:33;3.05;;;2.40;;
23046;SDS011;11691;51.462;6.902;2023-07-31T10:14:59;6.78;;;2.90;;
23046;SDS011;11691;51.462;6.902;2023-07-31T10:17:26;6.05;;;2.42;;
23046;SDS011;11691;51.462;6.902;2023-07-31T10:19:52;3.80;;;2.90;;
23046;SDS011;11691;51.462;6.902;2023-07-31T10:22:21;4.82;;;3.30;;
23046;SDS011;11691;51.462;6.902;2023-07-31T10:24:47;6.68;;;3.28;;
23046;SDS011;11691;51.462;6.902;2023-07-31T10:27:14;5.18;;;4.10;;
23046;SDS011;11691;51.462;6.902;2023-07-31T10:29:41;7.65;;;3.88;;
23046;SDS011;11691;51.462;6.902;2023-07-31T10:32:09;7.90;;;3.58;;
23046;SDS011;11691;51.462;6.902;2023-07-31T10:34:37;8.05;;;3.88;;
23046;SDS011;11691;51.462;6.902;2023-07-31T10:37:20;6.63;;;3.42;;
23046;SDS011;11691;51.462;6.902;2023-07-31T10:39:56;5.70;;;3.72;;
23046;SDS011;11691;51.462;6.902;2023-07-31T10:42:56;4.65;;;3.53;;
23046;SDS011;11691;51.462;6.902;2023-07-31T10:45:25;7.13;;;3.63;;
23046;SDS011;11691;51.462;6.902;2023-07-31T10:47:57;8.70;;;4.00;;
23046;SDS011;11691;51.462;6.902;2023-07-31T10:50:24;6.15;;;4.30;;
23046;SDS011;11691;51.462;6.902;2023-07-31T10:52:51;7.32;;;4.30;;
23046;SDS011;11691;51.462;6.902;2023-07-31T10:57:50;6.45;;;4.00;;
23046;SDS011;11691;51.462;6.902;2023-07-31T11:00:24;6.15;;;3.90;;
23046;SDS011;11691;51.462;6.902;2023-07-31T11:08:17;6.07;;;3.22;;
23046;SDS011;11691;51.462;6.902;2023-07-31T11:10:44;6.65;;;3.35;;
23046;SDS011;11691;51.462;6.902;2023-07-31T11:13:11;7.10;;;3.60;;
23046;SDS011;11691;51.462;6.902;2023-07-31T11:15:37;7.57;;;3.65;;
23046;SDS011;11691;51.462;6.902;2023-07-31T11:18:03;7.28;;;3.47;;
23046;SDS011;11691;51.462;6.902;2023-07-31T11:20:31;7.40;;;3.80;;
23046;SDS011;11691;51.462;6.902;2023-07-31T11:23:05;6.65;;;3.40;;
23046;SDS011;11691;51.462;6.902;2023-07-31T11:25:32;6.75;;;3.65;;
23046;SDS011;11691;51.462;6.902;2023-07-31T11:28:11;9.35;;;3.40;;
23046;SDS011;11691;51.462;6.902;2023-07-31T11:30:38;5.60;;;2.72;;
23046;SDS011;11691;51.462;6.902;2023-07-31T11:33:09;5.78;;;3.08;;
23046;SDS011;11691;51.462;6.902;2023-07-31T11:35:45;6.40;;;3.50;;
23046;SDS011;11691;51.462;6.902;2023-07-31T11:38:20;7.07;;;3.25;;
23046;SDS011;11691;51.462;6.902;2023-07-31T11:40:50;6.00;;;3.58;;
23046;SDS011;11691;51.462;6.902;2023-07-31T11:43:16;6.95;;;3.15;;
23046;SDS011;11691;51.462;6.902;2023-07-31T11:45:46;5.18;;;3.30;;
23046;SDS011;11691;51.462;6.902;2023-07-31T11:48:19;5.80;;;3.60;;
23046;SDS011;11691;51.462;6.902;2023-07-31T11:50:53;9.13;;;3.50;;
23046;SDS011;11691;51.462;6.902;2023-07-31T11:53:23;14.00;;;4.80;;
23046;SDS011;11691;51.462;6.902;2023-07-31T11:56:01;9.98;;;3.72;;
23046;SDS011;11691;51.462;6.902;2023-07-31T11:58:30;4.53;;;2.92;;
23046;SDS011;11691;51.462;6.902;2023-07-31T12:00:56;5.25;;;3.38;;
23046;SDS011;11691;51.462;6.902;2023-07-31T12:03:23;7.60;;;3.25;;
23046;SDS011;11691;51.462;6.902;2023-07-31T12:05:49;5.60;;;2.83;;
23046;SDS011;11691;51.462;6.902;2023-07-31T12:08:15;5.45;;;3.13;;
23046;SDS011;11691;51.462;6.902;2023-07-31T12:10:41;8.07;;;3.78;;
23046;SDS011;11691;51.462;6.902;2023-07-31T12:13:08;6.93;;;3.45;;
23046;SDS011;11691;51.462;6.902;2023-07-31T12:15:45;7.00;;;3.53;;
23046;SDS011;11691;51.462;6.902;2023-07-31T12:18:15;10.27;;;3.60;;
23046;SDS011;11691;51.462;6.902;2023-07-31T12:20:42;4.63;;;3.13;;
23046;SDS011;11691;51.462;6.902;2023-07-31T12:23:16;5.18;;;2.92;;
23046;SDS011;11691;51.462;6.902;2023-07-31T12:25:44;4.65;;;3.05;;
23046;SDS011;11691;51.462;6.902;2023-07-31T12:28:10;6.65;;;4.22;;
23046;SDS011;11691;51.462;6.902;2023-07-31T12:30:37;7.30;;;3.95;;
23046;SDS011;11691;51.462;6.902;2023-07-31T12:33:06;5.38;;;3.33;;
23046;SDS011;11691;51.462;6.902;2023-07-31T12:35:38;5.88;;;3.42;;
23046;SDS011;11691;51.462;6.902;2023-07-31T12:38:04;8.27;;;3.30;;
23046;SDS011;11691;51.462;6.902;2023-07-31T12:40:30;8.05;;;3.35;;
23046;SDS011;11691;51.462;6.902;2023-07-31T12:42:56;4.15;;;2.78;;
23046;SDS011;11691;51.462;6.902;2023-07-31T12:45:22;6.72;;;2.90;;
23046;SDS011;11691;51.462;6.902;2023-07-31T12:47:48;3.20;;;2.33;;
23046;SDS011;11691;51.462;6.902;2023-07-31T12:50:15;7.13;;;2.78;;
23046;SDS011;11691;51.462;6.902;2023-07-31T12:52:40;4.70;;;2.47;;
23046;SDS011;11691;51.462;6.902;2023-07-31T12:55:07;5.57;;;2.33;;
23046;SDS011;11691;51.462;6.902;2023-07-31T12:57:32;5.35;;;2.47;;
23046;SDS011;11691;51.462;6.902;2023-07-31T12:59:58;4.47;;;2.42;;
23046;SDS011;11691;51.462;6.902;2023-07-31T13:02:24;4.70;;;2.40;;
23046;SDS011;11691;51.462;6.902;2023-07-31T13:04:51;3.90;;;2.35;;
23046;SDS011;11691;51.462;6.902;2023-07-31T13:07:18;4.18;;;1.95;;
23046;SDS011;11691;51.462;6.902;2023-07-31T13:09:43;4.57;;;2.50;;
23046;SDS011;11691;51.462;6.902;2023-07-31T13:12:09;4.50;;;2.47;;
23046;SDS011;11691;51.462;6.902;2023-07-31T13:14:35;3.67;;;2.58;;
23046;SDS011;11691;51.462;6.902;2023-07-31T13:17:01;4.80;;;2.28;;
23046;SDS011;11691;51.462;6.902;2023-07-31T13:19:27;3.38;;;2.55;;
23046;SDS011;11691;51.462;6.902;2023-07-31T13:21:53;4.47;;;2.60;;
23046;SDS011;11691;51.462;6.902;2023-07-31T13:24:19;3.22;;;2.78;;
23046;SDS011;11691;51.462;6.902;2023-07-31T13:26:45;6.07;;;2.42;;
23046;SDS011;11691;51.462;6.902;2023-07-31T13:29:11;4.13;;;2.30;;
23046;SDS011;11691;51.462;6.902;2023-07-31T13:31:37;3.88;;;2.50;;
23046;SDS011;11691;51.462;6.902;2023-07-31T13:34:03;4.50;;;2.75;;
23046;SDS011;11691;51.462;6.902;2023-07-31T13:36:29;5.10;;;2.65;;
23046;SDS011;11691;51.462;6.902;2023-07-31T13:38:55;3.72;;;2.90;;
23046;SDS011;11691;51.462;6.902;2023-07-31T13:41:21;5.00;;;2.80;;
23046;SDS011;11691;51.462;6.902;2023-07-31T13:43:47;4.65;;;2.38;;
23046;SDS011;11691;51.462;6.902;2023-07-31T13:46:13;4.68;;;2.85;;
23046;SDS011;11691;51.462;6.902;2023-07-31T13:48:39;3.95;;;2.92;;
23046;SDS011;11691;51.462;6.902;2023-07-31T13:51:05;3.35;;;2.47;;
23046;SDS011;11691;51.462;6.902;2023-07-31T13:53:31;5.18;;;3.13;;
23046;SDS011;11691;51.462;6.902;2023-07-31T13:55:57;5.50;;;3.35;;
23046;SDS011;11691;51.462;6.902;2023-07-31T13:58:23;6.07;;;3.17;;
23046;SDS011;11691;51.462;6.902;2023-07-31T14:00:49;4.43;;;3.17;;
23046;SDS011;11691;51.462;6.902;2023-07-31T14:03:15;6.68;;;3.10;;
23046;SDS011;11691;51.462;6.902;2023-07-31T14:05:41;5.43;;;3.35;;
23046;SDS011;11691;51.462;6.902;2023-07-31T14:08:08;6.55;;;3.35;;
23046;SDS011;11691;51.462;6.902;2023-07-31T14:10:34;4.60;;;3.40;;
23046;SDS011;11691;51.462;6.902;2023-07-31T14:13:00;6.90;;;3.42;;
23046;SDS011;11691;51.462;6.902;2023-07-31T14:15:26;5.15;;;3.55;;
23046;SDS011;11691;51.462;6.902;2023-07-31T14:17:52;7.43;;;3.20;;
23046;SDS011;11691;51.462;6.902;2023-07-31T14:20:18;6.63;;;3.50;;
23046;SDS011;11691;51.462;6.902;2023-07-31T14:22:44;6.47;;;3.28;;
23046;SDS011;11691;51.462;6.902;2023-07-31T14:25:10;5.47;;;3.25;;
23046;SDS011;11691;51.462;6.902;2023-07-31T14:27:36;5.03;;;3.00;;
23046;SDS011;11691;51.462;6.902;2023-07-31T14:30:03;4.90;;;2.97;;
23046;SDS011;11691;51.462;6.902;2023-07-31T14:32:29;4.07;;;2.78;;
23046;SDS011;11691;51.462;6.902;2023-07-31T14:34:55;9.40;;;3.50;;
23046;SDS011;11691;51.462;6.902;2023-07-31T14:37:21;7.20;;;3.40;;
23046;SDS011;11691;51.462;6.902;2023-07-31T14:39:47;7.10;;;2.80;;
23046;SDS011;11691;51.462;6.902;2023-07-31T14:42:13;5.03;;;2.97;;
23046;SDS011;11691;51.462;6.902;2023-07-31T14:44:39;5.05;;;3.13;;
23046;SDS011;11691;51.462;6.902;2023-07-31T14:47:05;5.85;;;3.17;;
23046;SDS011;11691;51.462;6.902;2023-07-31T14:49:31;4.93;;;3.47;;